Laceys Spring, Alabama
Current Conditions -  °F | °C
As of 7:58 AM on Tuesday 27 Jan 2015 (Local Time) from KHUA Reporting Station
Scattered Clouds Scattered Clouds  
Wind Chill: 32°   Ceiling: Unl
Heat Index: 40°   Visibility: 10mi
Dew Point: 35°   Wind: 13mph
Humidity: 83%   Direction: 340°NNW
Pressure: 29.98"   Gusts: NA
Location:  34.53°N, 86.6°W
Report Text: KHUA 271358Z AUTO 34011KT 10SM SCT060 04/02 A2998 RMK AO2 SLP157 T00420016
Loading
Personal Weather Stations






























Interactive Weather Map New forecast layout! Learn more

10-Day Weather Forecast

Advertisements
Track Severe Weather on mobile